Time;durP1;ratioP1;P1;durP2;ratioP2;P2;SDS_P1;SDS_P2;PMS_P1;PMS_P2;Temp;Humidity;BMP_temperature;BMP_pressure;BME280_temperature;BME280_humidity;BME280_pressure;Samples;Min_cycle;Max_cycle;Signal;HPM_P1;HPM_P2
2024/01/04 00:00:43;;;;;;;11.80;5.40;;;;;;;2.12;69.21;99629.77;107117;1260;97866;-64
2024/01/04 00:03:31;;;;;;;12.70;5.00;;;;;;;2.11;69.35;99635.20;107136;1256;113610;-64
2024/01/04 00:06:01;;;;;;;10.40;5.80;;;;;;;2.02;68.88;99638.45;107139;1260;108485;-64
2024/01/04 00:08:30;;;;;;;11.80;6.30;;;;;;;1.94;68.75;99638.71;107290;1256;108670;-63
2024/01/04 00:11:03;;;;;;;12.70;6.30;;;;;;;1.89;69.00;99641.85;107128;1257;97845;-63
2024/01/04 00:13:31;;;;;;;17.30;6.90;;;;;;;1.87;69.27;99641.84;107210;1256;97831;-64
2024/01/04 00:16:00;;;;;;;15.30;8.00;;;;;;;1.88;69.44;99647.97;107074;1257;110625;-66
2024/01/04 00:18:28;;;;;;;16.10;8.20;;;;;;;1.89;69.59;99647.88;107064;1258;108351;-64
2024/01/04 00:20:57;;;;;;;14.00;7.80;;;;;;;1.91;69.77;99658.58;107051;1258;107660;-64
2024/01/04 00:23:25;;;;;;;13.50;7.40;;;;;;;1.91;69.74;99660.11;107022;1258;97859;-63
2024/01/04 00:25:53;;;;;;;14.00;7.00;;;;;;;1.91;69.68;99657.80;107055;1257;98384;-63
2024/01/04 00:28:22;;;;;;;14.40;6.70;;;;;;;1.90;69.74;99649.92;107146;1257;111765;-61
2024/01/04 00:30:50;;;;;;;17.00;6.90;;;;;;;1.87;69.57;99651.87;107094;1256;107856;-65
2024/01/04 00:33:18;;;;;;;12.60;7.20;;;;;;;1.85;69.52;99648.34;107163;1256;107781;-64
2024/01/04 00:35:47;;;;;;;13.40;6.80;;;;;;;1.80;69.49;99646.21;107094;1257;97866;-65
2024/01/04 00:38:16;;;;;;;12.40;7.20;;;;;;;1.75;69.40;99644.58;107276;1257;97788;-66
2024/01/04 00:40:44;;;;;;;10.10;5.90;;;;;;;1.73;69.25;99643.48;107304;1256;112191;-64
2024/01/04 00:43:13;;;;;;;12.50;6.10;;;;;;;1.71;69.21;99645.60;107332;1258;107885;-64
2024/01/04 00:45:41;;;;;;;15.80;8.90;;;;;;;1.65;69.00;99644.73;107213;1259;107856;-63
2024/01/04 00:48:10;;;;;;;11.60;6.50;;;;;;;1.60;69.09;99653.25;107131;1257;97858;-64
2024/01/04 00:50:39;;;;;;;18.70;8.50;;;;;;;1.57;69.14;99651.35;107276;1256;97707;-66
2024/01/04 00:53:07;;;;;;;15.40;7.00;;;;;;;1.53;69.25;99655.85;107333;1255;111881;-63
2024/01/04 00:55:37;;;;;;;12.40;7.10;;;;;;;1.51;69.41;99656.70;107244;1257;107827;-64
2024/01/04 00:58:06;;;;;;;16.10;6.20;;;;;;;1.49;69.45;99661.77;107280;1257;107134;-63
2024/01/04 01:00:34;;;;;;;17.40;6.70;;;;;;;1.48;69.49;99663.05;107276;1257;97859;-62
2024/01/04 01:03:03;;;;;;;11.60;5.90;;;;;;;1.43;69.38;99672.41;107297;1259;97752;-64
2024/01/04 01:05:32;;;;;;;14.60;6.50;;;;;;;1.38;69.43;99672.89;107299;1255;111150;-65
2024/01/04 01:08:01;;;;;;;15.20;6.20;;;;;;;1.34;69.28;99667.19;107207;1256;108321;-65
2024/01/04 01:10:32;;;;;;;9.90;5.80;;;;;;;1.29;69.17;99673.91;107286;1259;108608;-64
2024/01/04 01:13:01;;;;;;;15.20;6.30;;;;;;;1.23;69.32;99665.11;107301;1257;97819;-64
2024/01/04 01:15:29;;;;;;;10.30;6.20;;;;;;;1.16;69.22;99656.90;107336;1255;97762;-63
2024/01/04 01:18:00;;;;;;;9.50;5.50;;;;;;;1.11;69.20;99657.98;107313;1257;112991;-62
2024/01/04 01:20:29;;;;;;;9.30;5.40;;;;;;;1.05;69.60;99648.97;107334;1256;108585;-64
2024/01/04 01:22:58;;;;;;;11.60;5.60;;;;;;;1.04;69.47;99660.17;107263;1257;108215;-64
2024/01/04 01:25:27;;;;;;;12.30;5.60;;;;;;;1.06;69.69;99657.40;107201;1257;97813;-63
2024/01/04 01:27:55;;;;;;;10.80;4.90;;;;;;;1.11;69.94;99667.70;107307;1256;98379;-63
2024/01/04 01:30:24;;;;;;;10.10;5.30;;;;;;;1.14;69.85;99675.58;107378;1256;111773;-63
2024/01/04 01:32:52;;;;;;;9.60;5.90;;;;;;;1.20;70.05;99675.19;107156;1256;108534;-63
2024/01/04 01:35:21;;;;;;;11.50;5.50;;;;;;;1.25;70.08;99678.41;107087;1256;107951;-63
2024/01/04 01:37:49;;;;;;;10.50;5.70;;;;;;;1.28;70.12;99677.67;107137;1256;97867;-64
2024/01/04 01:40:18;;;;;;;8.90;5.50;;;;;;;1.32;70.12;99673.02;107131;1260;97746;-66
2024/01/04 01:42:47;;;;;;;10.80;5.70;;;;;;;1.34;70.08;99665.41;107166;1257;111522;-64
2024/01/04 01:45:16;;;;;;;12.20;6.70;;;;;;;1.40;70.26;99657.46;107152;1260;107536;-65
2024/01/04 01:47:48;;;;;;;12.60;6.90;;;;;;;1.47;70.36;99661.77;107182;1256;107038;-63
2024/01/04 01:50:19;;;;;;;17.10;8.50;;;;;;;1.52;70.16;99664.23;107117;1256;97861;-63
2024/01/04 01:52:51;;;;;;;20.30;9.10;;;;;;;1.53;69.97;99663.24;107115;1260;97842;-63
2024/01/04 01:55:21;;;;;;;23.70;10.50;;;;;;;1.57;70.00;99666.37;107113;1257;111727;-62
2024/01/04 01:57:50;;;;;;;17.40;8.40;;;;;;;1.59;70.11;99658.42;107010;1256;107592;-62
2024/01/04 02:00:19;;;;;;;13.80;6.60;;;;;;;1.60;70.11;99657.28;107003;1256;108795;-61
2024/01/04 02:02:49;;;;;;;18.00;7.60;;;;;;;1.61;70.19;99643.27;107120;1256;98040;-66
2024/01/04 02:05:18;;;;;;;12.80;6.50;;;;;;;1.65;70.10;99646.57;107191;1256;97874;-62
2024/01/04 02:07:46;;;;;;;14.10;6.70;;;;;;;1.66;70.39;99646.81;107015;1256;112329;-65
2024/01/04 02:10:15;;;;;;;11.40;6.30;;;;;;;1.68;70.64;99656.91;107048;1257;107150;-64
2024/01/04 02:12:43;;;;;;;11.00;6.20;;;;;;;1.71;70.61;99653.88;107056;1257;108249;-65
2024/01/04 02:15:11;;;;;;;14.50;6.60;;;;;;;1.73;70.54;99654.83;107060;1257;97855;-63
2024/01/04 02:17:40;;;;;;;18.50;8.10;;;;;;;1.76;70.79;99658.69;106969;1256;99554;-64
2024/01/04 02:20:11;;;;;;;15.30;7.70;;;;;;;1.78;70.81;99659.23;106968;1257;111930;-64
2024/01/04 02:22:44;;;;;;;15.80;8.90;;;;;;;1.81;71.25;99663.13;107120;1257;107815;-64
2024/01/04 02:25:12;;;;;;;23.10;10.20;;;;;;;1.82;71.12;99660.23;107071;1257;107415;-63
2024/01/04 02:27:41;;;;;;;23.90;11.40;;;;;;;1.84;71.37;99659.70;107003;1257;97971;-64
2024/01/04 02:30:12;;;;;;;28.50;11.90;;;;;;;1.89;71.32;99662.73;107077;1257;98524;-65
2024/01/04 02:32:41;;;;;;;25.30;11.20;;;;;;;1.93;71.28;99657.14;107070;1255;111600;-63
2024/01/04 02:35:10;;;;;;;22.20;10.40;;;;;;;1.97;71.46;99648.04;107364;1256;108696;-63
2024/01/04 02:37:38;;;;;;;22.80;10.00;;;;;;;2.02;71.78;99637.23;107323;1257;107926;-63
2024/01/04 02:40:07;;;;;;;25.20;10.60;;;;;;;2.06;71.88;99635.36;107269;1256;97846;-64
2024/01/04 02:42:35;;;;;;;21.30;9.80;;;;;;;2.09;71.85;99631.80;107203;1257;97962;-65
2024/01/04 02:45:04;;;;;;;26.30;11.10;;;;;;;2.11;71.85;99640.17;107147;1257;111911;-65
2024/01/04 02:47:32;;;;;;;23.60;9.60;;;;;;;2.11;71.68;99646.47;107243;1257;106740;-64
2024/01/04 02:50:01;;;;;;;19.20;8.70;;;;;;;2.10;71.62;99653.46;107076;1256;108241;-64
2024/01/04 02:52:29;;;;;;;17.90;8.20;;;;;;;2.07;71.44;99655.48;107160;1260;97935;-64
2024/01/04 02:54:58;;;;;;;18.50;7.60;;;;;;;2.04;71.43;99663.98;107205;1256;98422;-65
2024/01/04 02:57:27;;;;;;;16.90;8.90;;;;;;;2.00;71.23;99664.76;107128;1256;111985;-65
2024/01/04 02:59:55;;;;;;;15.90;7.70;;;;;;;1.96;71.35;99663.33;107206;1259;109819;-62
2024/01/04 03:02:23;;;;;;;13.80;7.40;;;;;;;1.92;71.12;99656.90;107250;1257;108151;-63
2024/01/04 03:04:52;;;;;;;18.60;8.10;;;;;;;1.91;71.22;99658.02;107214;1257;97870;-63
2024/01/04 03:07:20;;;;;;;14.80;7.30;;;;;;;1.92;71.46;99657.95;107273;1256;97947;-63
2024/01/04 03:09:49;;;;;;;19.00;8.30;;;;;;;1.91;71.26;99651.42;107272;1259;110983;-65
2024/01/04 03:12:17;;;;;;;14.80;8.30;;;;;;;1.90;71.13;99652.95;107289;1257;108339;-63
2024/01/04 03:14:45;;;;;;;20.20;8.80;;;;;;;1.87;71.15;99651.53;107130;1256;107645;-65
2024/01/04 03:17:14;;;;;;;18.80;8.60;;;;;;;1.87;71.38;99654.20;107220;1256;97925;-65
2024/01/04 03:19:42;;;;;;;17.30;8.30;;;;;;;1.86;71.15;99659.75;107302;1256;97841;-65
2024/01/04 03:22:10;;;;;;;16.30;9.20;;;;;;;1.84;71.22;99657.91;107256;1255;110796;-63
2024/01/04 03:24:39;;;;;;;18.50;9.10;;;;;;;1.82;71.31;99665.16;107398;1255;108430;-66
2024/01/04 03:27:08;;;;;;;19.30;9.50;;;;;;;1.78;71.48;99656.75;107312;1255;107488;-67
2024/01/04 03:29:40;;;;;;;17.40;9.50;;;;;;;1.76;71.29;99643.13;107252;1255;97847;-67
2024/01/04 03:32:08;;;;;;;15.00;8.70;;;;;;;1.72;71.28;99645.73;107282;1256;97842;-64
2024/01/04 03:34:37;;;;;;;19.30;10.30;;;;;;;1.66;71.29;99651.75;107325;1259;111781;-70
2024/01/04 03:37:05;;;;;;;21.40;10.20;;;;;;;1.62;71.44;99657.02;107294;1257;108879;-68
2024/01/04 03:39:33;;;;;;;32.60;10.10;;;;;;;1.58;71.21;99656.57;107275;1257;108137;-68
2024/01/04 03:42:02;;;;;;;15.60;9.10;;;;;;;1.54;71.26;99655.22;107289;1255;97861;-69
2024/01/04 03:44:31;;;;;;;16.60;8.70;;;;;;;1.51;71.35;99653.88;107237;1256;98389;-69
2024/01/04 03:46:59;;;;;;;17.30;9.00;;;;;;;1.47;71.33;99651.50;107192;1256;112303;-70
2024/01/04 03:49:28;;;;;;;17.90;9.40;;;;;;;1.44;71.42;99647.23;107175;1257;108420;-69
2024/01/04 03:51:57;;;;;;;17.50;8.40;;;;;;;1.45;71.39;99652.52;107208;1257;108415;-70
2024/01/04 03:54:25;;;;;;;16.70;8.80;;;;;;;1.41;71.38;99656.33;107299;1257;97727;-70
2024/01/04 03:56:54;;;;;;;17.50;9.40;;;;;;;1.40;71.13;99653.56;107259;1257;98434;-70
2024/01/04 03:59:22;;;;;;;18.30;9.80;;;;;;;1.39;71.36;99651.98;107188;1255;111638;-69
2024/01/04 04:01:51;;;;;;;15.60;8.90;;;;;;;1.40;71.37;99649.84;107254;1257;108742;-68
2024/01/04 04:04:19;;;;;;;18.90;9.50;;;;;;;1.40;71.32;99652.64;107047;1257;107241;-72
2024/01/04 04:06:47;;;;;;;20.40;10.10;;;;;;;1.40;71.20;99654.95;107182;1256;97944;-69
2024/01/04 04:09:18;;;;;;;16.10;10.10;;;;;;;1.39;71.42;99654.46;107263;1257;98373;-71
2024/01/04 04:11:48;;;;;;;20.90;9.50;;;;;;;1.41;71.44;99657.73;107150;1256;111724;-70
2024/01/04 04:14:17;;;;;;;20.90;10.80;;;;;;;1.42;71.55;99652.92;107271;1256;107650;-71
2024/01/04 04:16:45;;;;;;;25.50;11.10;;;;;;;1.43;71.53;99649.80;107238;1256;107824;-70
2024/01/04 04:19:15;;;;;;;17.20;8.60;;;;;;;1.44;71.74;99648.19;107110;1261;97855;-71
2024/01/04 04:21:43;;;;;;;16.80;9.70;;;;;;;1.40;71.52;99647.02;107263;1256;97941;-70
2024/01/04 04:24:12;;;;;;;21.10;9.80;;;;;;;1.37;71.59;99642.95;107209;1256;112658;-72
2024/01/04 04:26:40;;;;;;;15.10;9.30;;;;;;;1.36;71.63;99638.11;107291;1257;107908;-71
2024/01/04 04:29:09;;;;;;;15.50;9.50;;;;;;;1.34;71.64;99641.95;107245;1257;106529;-69
2024/01/04 04:31:37;;;;;;;19.30;9.70;;;;;;;1.30;71.56;99653.37;107224;1256;97805;-70
2024/01/04 04:34:05;;;;;;;19.50;9.00;;;;;;;1.25;71.65;99653.99;107194;1257;97856;-70
2024/01/04 04:36:34;;;;;;;20.00;9.30;;;;;;;1.22;71.56;99660.39;107236;1256;111633;-70
2024/01/04 04:39:03;;;;;;;15.70;8.90;;;;;;;1.21;71.64;99656.93;107169;1256;107927;-67
2024/01/04 04:41:31;;;;;;;20.00;9.30;;;;;;;1.20;71.67;99661.80;107188;1256;108336;-68
2024/01/04 04:43:59;;;;;;;18.70;9.90;;;;;;;1.19;71.56;99659.19;107184;1256;98056;-69
2024/01/04 04:46:28;;;;;;;15.50;9.60;;;;;;;1.18;71.71;99662.23;107235;1256;98473;-69
2024/01/04 04:48:57;;;;;;;15.70;9.00;;;;;;;1.19;71.70;99663.98;107238;1257;111805;-69
2024/01/04 04:51:26;;;;;;;19.70;9.30;;;;;;;1.20;71.90;99668.47;107213;1257;108243;-69
2024/01/04 04:53:54;;;;;;;18.00;9.90;;;;;;;1.21;71.76;99676.14;107282;1256;108330;-69
2024/01/04 04:56:22;;;;;;;14.60;7.80;;;;;;;1.23;71.73;99674.45;107279;1255;97702;-69
2024/01/04 04:58:51;;;;;;;19.60;9.30;;;;;;;1.25;71.85;99674.67;107334;1259;98392;-68
2024/01/04 05:01:19;;;;;;;18.50;9.50;;;;;;;1.25;72.03;99672.23;107309;1256;111358;-69
2024/01/04 05:03:47;;;;;;;21.30;10.90;;;;;;;1.22;71.74;99670.50;107281;1257;109278;-69
2024/01/04 05:06:17;;;;;;;18.00;9.80;;;;;;;1.21;71.68;99665.78;107284;1256;108115;-68
2024/01/04 05:08:45;;;;;;;17.00;9.70;;;;;;;1.19;71.75;99665.73;107185;1256;97931;-69
2024/01/04 05:11:14;;;;;;;16.00;9.10;;;;;;;1.19;71.89;99669.96;107210;1256;97878;-69
2024/01/04 05:13:42;;;;;;;19.10;9.40;;;;;;;1.19;71.90;99666.79;107290;1256;111930;-70
2024/01/04 05:16:10;;;;;;;27.10;11.70;;;;;;;1.19;71.93;99665.92;107200;1256;108348;-69
2024/01/04 05:18:39;;;;;;;18.50;9.60;;;;;;;1.18;72.08;99673.92;107208;1259;106100;-70
2024/01/04 05:21:07;;;;;;;21.00;10.70;;;;;;;1.19;72.04;99677.92;107272;1259;97822;-67
2024/01/04 05:23:35;;;;;;;16.80;8.40;;;;;;;1.19;72.14;99681.09;107187;1256;97984;-68
2024/01/04 05:26:04;;;;;;;13.90;7.50;;;;;;;1.18;71.98;99685.42;107223;1256;113060;-69
2024/01/04 05:28:32;;;;;;;15.30;7.60;;;;;;;1.17;72.33;99693.02;106982;1256;107846;-69
2024/01/04 05:31:01;;;;;;;13.90;7.60;;;;;;;1.17;72.21;99690.77;107206;1260;107807;-69
2024/01/04 05:33:29;;;;;;;13.60;6.00;;;;;;;1.14;71.96;99684.82;107210;1256;97858;-70
2024/01/04 05:35:57;;;;;;;16.50;7.40;;;;;;;1.13;72.37;99688.90;107262;1255;98377;-69
2024/01/04 05:38:26;;;;;;;18.80;8.20;;;;;;;1.16;72.52;99686.78;107187;1256;111789;-70
2024/01/04 05:40:54;;;;;;;17.50;9.90;;;;;;;1.19;72.55;99683.92;107022;1256;107958;-71
2024/01/04 05:43:22;;;;;;;16.70;8.50;;;;;;;1.19;72.53;99683.59;107227;1259;108758;-69
2024/01/04 05:45:51;;;;;;;17.90;7.80;;;;;;;1.16;72.53;99678.25;107256;1257;97860;-69
2024/01/04 05:48:19;;;;;;;16.60;9.20;;;;;;;1.17;72.56;99682.09;107146;1256;98390;-71
2024/01/04 05:50:49;;;;;;;14.40;7.80;;;;;;;1.18;72.73;99676.02;106921;1256;112085;-69
2024/01/04 05:53:17;;;;;;;14.70;8.30;;;;;;;1.24;73.06;99679.55;107256;1257;108643;-69
2024/01/04 05:55:46;;;;;;;18.90;9.00;;;;;;;1.29;73.13;99685.91;107273;1257;108124;-69
2024/01/04 05:58:15;;;;;;;14.40;7.70;;;;;;;1.35;73.25;99688.89;107230;1257;97832;-69
2024/01/04 06:00:43;;;;;;;15.60;7.00;;;;;;;1.37;73.01;99692.24;107218;1256;98272;-68
2024/01/04 06:03:11;;;;;;;18.50;10.50;;;;;;;1.37;73.08;99689.42;107255;1257;112150;-69
2024/01/04 06:05:40;;;;;;;20.40;8.70;;;;;;;1.38;72.97;99694.13;107300;1256;108625;-69
2024/01/04 06:08:09;;;;;;;15.30;8.90;;;;;;;1.38;72.88;99689.91;107244;1259;107390;-70
2024/01/04 06:10:37;;;;;;;25.00;13.40;;;;;;;1.44;73.30;99694.48;107200;1257;97842;-70
2024/01/04 06:13:07;;;;;;;46.40;23.50;;;;;;;1.49;73.55;99692.84;107250;1256;97750;-71
2024/01/04 06:15:37;;;;;;;30.10;18.80;;;;;;;1.55;73.62;99696.55;106979;1256;112605;-69
2024/01/04 06:18:05;;;;;;;30.20;16.60;;;;;;;1.59;73.51;99694.64;107207;1256;107402;-70
2024/01/04 06:20:35;;;;;;;20.70;14.00;;;;;;;1.62;73.48;99700.64;107224;1256;107477;-70
2024/01/04 06:23:04;;;;;;;15.90;8.90;;;;;;;1.67;73.62;99700.29;107286;1257;97955;-71
2024/01/04 06:25:32;;;;;;;16.30;8.90;;;;;;;1.71;73.72;99699.11;107346;1257;97849;-70
2024/01/04 06:28:01;;;;;;;18.40;9.20;;;;;;;1.75;73.54;99699.92;107238;1257;111711;-71
2024/01/04 06:30:29;;;;;;;8.40;5.80;;;;;;;1.77;73.59;99692.37;107268;1257;108389;-72
2024/01/04 06:32:58;;;;;;;10.50;6.60;;;;;;;1.79;73.57;99696.98;107233;1256;107250;-69
2024/01/04 06:35:26;;;;;;;17.90;7.40;;;;;;;1.83;73.62;99695.87;107093;1256;97883;-69
2024/01/04 06:37:55;;;;;;;18.00;8.50;;;;;;;1.85;73.57;99701.88;107299;1255;97866;-70
2024/01/04 06:40:23;;;;;;;17.10;8.10;;;;;;;1.88;74.10;99694.59;107268;1256;111776;-70
2024/01/04 06:42:55;;;;;;;12.20;7.40;;;;;;;1.88;74.02;99692.70;107042;1256;108583;-70
2024/01/04 06:45:24;;;;;;;21.50;8.20;;;;;;;1.88;73.98;99690.16;107264;1256;108878;-69
2024/01/04 06:47:53;;;;;;;17.70;10.40;;;;;;;1.93;74.22;99690.08;107175;1260;97982;-70
2024/01/04 06:50:22;;;;;;;17.30;9.30;;;;;;;1.98;74.26;99692.16;107195;1259;97822;-69
2024/01/04 06:52:50;;;;;;;20.50;12.40;;;;;;;2.06;74.53;99692.14;107080;1257;110802;-69
2024/01/04 06:55:19;;;;;;;21.90;11.90;;;;;;;2.12;74.48;99696.33;107232;1257;107839;-69
2024/01/04 06:57:47;;;;;;;22.50;14.10;;;;;;;2.18;74.49;99697.67;107224;1256;107356;-69
2024/01/04 07:00:16;;;;;;;21.30;12.20;;;;;;;2.23;74.64;99691.30;107256;1256;97820;-69
2024/01/04 07:02:45;;;;;;;32.60;15.10;;;;;;;2.28;74.75;99695.01;107294;1259;97978;-68
2024/01/04 07:05:13;;;;;;;30.60;15.00;;;;;;;2.32;74.91;99689.92;107298;1257;111168;-69
2024/01/04 07:07:42;;;;;;;30.80;17.80;;;;;;;2.39;74.93;99690.34;107198;1256;109854;-70
2024/01/04 07:10:11;;;;;;;31.30;16.50;;;;;;;2.46;74.73;99689.48;107200;1257;107699;-70
2024/01/04 07:12:41;;;;;;;37.30;17.70;;;;;;;2.52;74.85;99689.98;107213;1255;97954;-69
2024/01/04 07:15:10;;;;;;;47.80;19.00;;;;;;;2.57;75.28;99691.69;107253;1257;97722;-69
2024/01/04 07:17:39;;;;;;;38.40;17.50;;;;;;;2.63;75.15;99696.77;107275;1259;111343;-69
2024/01/04 07:20:09;;;;;;;33.60;18.10;;;;;;;2.69;75.13;99699.20;107328;1257;107342;-72
2024/01/04 07:22:37;;;;;;;41.80;18.70;;;;;;;2.78;75.29;99701.55;107259;1257;108176;-70
2024/01/04 07:25:06;;;;;;;38.40;17.70;;;;;;;2.87;75.36;99701.03;107267;1257;97826;-69
2024/01/04 07:27:34;;;;;;;52.80;22.10;;;;;;;2.95;75.42;99693.73;107239;1257;98417;-68
2024/01/04 07:30:03;;;;;;;53.80;29.80;;;;;;;3.01;75.36;99694.52;107159;1256;111119;-69
2024/01/04 07:32:32;;;;;;;59.30;25.60;;;;;;;3.11;75.10;99699.84;107245;1256;106249;-69
2024/01/04 07:35:00;;;;;;;46.70;25.50;;;;;;;3.21;75.30;99705.63;107272;1257;108383;-68
2024/01/04 07:37:43;;;;;;;54.00;23.70;;;;;;;3.33;75.60;99711.62;107160;1256;97856;-68
2024/01/04 07:40:12;;;;;;;50.00;23.10;;;;;;;3.46;75.49;99712.25;107183;1256;98398;-69
2024/01/04 07:42:41;;;;;;;47.90;24.90;;;;;;;3.58;75.48;99711.56;107057;1257;111484;-69
2024/01/04 07:45:10;;;;;;;46.20;20.10;;;;;;;3.67;75.52;99708.54;107242;1257;108731;-68
2024/01/04 07:47:39;;;;;;;49.20;21.00;;;;;;;3.76;75.23;99704.30;107232;1257;106827;-69
2024/01/04 07:50:08;;;;;;;40.50;21.20;;;;;;;3.83;75.24;99703.39;107219;1257;97866;-69
2024/01/04 07:52:36;;;;;;;44.70;21.90;;;;;;;3.89;75.21;99700.63;107300;1257;98443;-70
2024/01/04 07:55:05;;;;;;;49.40;23.20;;;;;;;3.98;75.30;99695.13;107269;1259;111977;-68
2024/01/04 07:57:35;;;;;;;49.40;23.50;;;;;;;4.03;74.92;99691.89;107246;1256;108611;-68
2024/01/04 08:00:04;;;;;;;42.70;23.70;;;;;;;4.10;74.79;99691.39;107256;1256;108176;-68
2024/01/04 08:02:39;;;;;;;45.10;25.90;;;;;;;4.16;74.59;99682.23;107260;1257;97841;-68
2024/01/04 08:05:10;;;;;;;44.70;26.00;;;;;;;4.20;74.55;99684.38;107302;1257;98376;-70
2024/01/04 08:07:38;;;;;;;50.40;26.10;;;;;;;4.25;74.43;99688.80;107260;1257;110546;-69
2024/01/04 08:10:09;;;;;;;57.70;29.10;;;;;;;4.25;74.47;99693.40;107252;1257;108365;-68
2024/01/04 08:12:40;;;;;;;67.70;36.30;;;;;;;4.24;74.36;99693.14;107247;1256;106856;-68
2024/01/04 08:15:09;;;;;;;43.80;26.90;;;;;;;4.28;74.36;99688.54;107280;1257;97839;-68
2024/01/04 08:17:38;;;;;;;47.20;25.70;;;;;;;4.33;74.42;99684.59;107298;1257;98399;-70
2024/01/04 08:20:07;;;;;;;39.80;21.10;;;;;;;4.46;74.24;99683.06;107272;1257;111198;-69
2024/01/04 08:22:37;;;;;;;36.30;19.60;;;;;;;4.66;74.38;99683.20;107264;1257;107885;-70
2024/01/04 08:25:08;;;;;;;37.70;18.60;;;;;;;5.09;74.35;99678.66;107230;1257;108245;-69
2024/01/04 08:27:36;;;;;;;43.00;21.40;;;;;;;5.79;74.17;99665.59;107230;1257;97928;-70
2024/01/04 08:30:06;;;;;;;33.00;17.10;;;;;;;6.65;73.30;99659.08;107250;1256;97878;-68
2024/01/04 08:32:34;;;;;;;28.00;17.10;;;;;;;7.46;72.71;99645.94;107325;1257;112381;-69
2024/01/04 08:35:03;;;;;;;28.60;13.60;;;;;;;8.18;72.27;99638.13;107211;1257;109372;-70
2024/01/04 08:37:31;;;;;;;20.20;8.20;;;;;;;8.76;71.86;99634.27;106955;1262;106975;-68
2024/01/04 08:40:00;;;;;;;13.30;7.80;;;;;;;9.28;71.81;99626.08;107146;1258;97851;-69
2024/01/04 08:42:28;;;;;;;13.00;6.50;;;;;;;9.88;70.52;99619.23;107015;1257;97784;-70
2024/01/04 08:44:58;;;;;;;13.60;5.80;;;;;;;10.43;68.61;99621.76;106400;1257;1004636;-71
2024/01/04 08:47:26;;;;;;;9.00;4.40;;;;;;;11.00;66.21;99621.90;107291;1257;108606;-71
2024/01/04 08:50:00;;;;;;;10.60;4.20;;;;;;;11.28;65.13;99628.61;107185;1257;108670;-70
2024/01/04 08:52:30;;;;;;;7.30;4.00;;;;;;;11.47;64.22;99623.98;107204;1260;97823;-70
2024/01/04 08:54:58;;;;;;;21.70;13.30;;;;;;;12.00;62.97;99622.41;107230;1261;98488;-70
2024/01/04 08:57:26;;;;;;;16.90;9.20;;;;;;;12.48;60.17;99621.45;107230;1259;112243;-69
2024/01/04 08:59:55;;;;;;;14.50;6.80;;;;;;;12.94;61.36;99616.27;107019;1256;108116;-70
2024/01/04 09:02:23;;;;;;;14.50;5.70;;;;;;;13.32;61.64;99620.33;107195;1260;107482;-69
2024/01/04 09:04:51;;;;;;;10.70;5.10;;;;;;;13.61;61.49;99619.61;107182;1257;97846;-70
2024/01/04 09:07:20;;;;;;;8.40;3.40;;;;;;;13.71;58.20;99619.33;107275;1256;97845;-67
2024/01/04 09:09:50;;;;;;;5.60;3.70;;;;;;;13.54;55.80;99617.41;107221;1256;112210;-68
2024/01/04 09:12:19;;;;;;;8.10;5.00;;;;;;;13.49;55.99;99610.61;107211;1256;108327;-67
2024/01/04 09:14:47;;;;;;;7.60;2.70;;;;;;;13.27;53.38;99602.20;107146;1256;107985;-67
2024/01/04 09:17:16;;;;;;;5.40;3.10;;;;;;;13.12;53.10;99597.77;107222;1256;97961;-67
2024/01/04 09:19:44;;;;;;;5.20;3.00;;;;;;;12.96;52.96;99593.71;107208;1257;97726;-67
2024/01/04 09:22:13;;;;;;;5.30;2.80;;;;;;;12.81;52.78;99597.39;107255;1256;112105;-67
2024/01/04 09:24:41;;;;;;;5.80;2.80;;;;;;;12.98;52.08;99599.77;107228;1256;107948;-65
2024/01/04 09:27:11;;;;;;;12.00;2.90;;;;;;;13.30;51.08;99601.80;107156;1257;107795;-64
2024/01/04 09:29:41;;;;;;;10.40;3.20;;;;;;;13.54;51.22;99600.75;107191;1256;97933;-65
2024/01/04 09:32:09;;;;;;;7.90;2.80;;;;;;;13.78;51.17;99601.27;107188;1256;97731;-65
2024/01/04 09:34:38;;;;;;;7.10;3.10;;;;;;;13.97;50.57;99601.86;107198;1260;112229;-69
2024/01/04 09:37:06;;;;;;;10.70;2.70;;;;;;;14.09;48.02;99607.89;107138;1256;107843;-68
2024/01/04 09:39:34;;;;;;;7.70;3.20;;;;;;;14.15;48.03;99601.40;107124;1256;107772;-66
2024/01/04 09:42:06;;;;;;;6.30;3.10;;;;;;;14.44;48.47;99590.02;107085;1259;97839;-68
2024/01/04 09:44:35;;;;;;;5.40;2.90;;;;;;;14.81;46.16;99582.52;106951;1259;97769;-68
2024/01/04 09:47:10;;;;;;;10.70;2.90;;;;;;;15.16;44.66;99575.67;107231;1260;112350;-68
2024/01/04 09:49:39;;;;;;;16.90;3.20;;;;;;;15.43;44.21;99574.08;107177;1257;108840;-66
2024/01/04 09:52:09;;;;;;;8.20;3.70;;;;;;;15.62;43.55;99567.80;107170;1257;107179;-66
2024/01/04 09:54:39;;;;;;;7.80;4.40;;;;;;;15.82;44.08;99562.45;107184;1259;98034;-67
2024/01/04 09:57:08;;;;;;;7.30;3.50;;;;;;;16.07;43.52;99556.88;107188;1261;99544;-66
2024/01/04 09:59:37;;;;;;;12.80;3.80;;;;;;;16.49;43.28;99547.15;107255;1256;112681;-67
2024/01/04 10:02:09;;;;;;;7.30;4.10;;;;;;;17.02;43.77;99546.83;107160;1257;108109;-66
2024/01/04 10:04:43;;;;;;;10.00;3.20;;;;;;;17.62;42.45;99551.70;107151;1256;107072;-67
2024/01/04 10:07:19;;;;;;;6.60;3.80;;;;;;;18.17;39.58;99551.73;107243;1257;97836;-70
2024/01/04 10:10:05;;;;;;;8.10;3.30;;;;;;;18.42;38.93;99544.74;107196;1256;97955;-69
2024/01/04 10:12:36;;;;;;;7.20;3.30;;;;;;;18.42;38.38;99543.41;107190;1257;110992;-67
2024/01/04 10:15:07;;;;;;;7.00;3.50;;;;;;;18.36;38.83;99535.83;107216;1256;107312;-67
2024/01/04 10:17:37;;;;;;;7.60;3.50;;;;;;;18.34;37.73;99530.02;107271;1257;107004;-69
2024/01/04 10:20:07;;;;;;;6.40;3.60;;;;;;;18.14;37.77;99524.58;107197;1257;97848;-65
2024/01/04 10:22:35;;;;;;;7.40;4.20;;;;;;;17.85;38.59;99520.61;107291;1260;98379;-66
2024/01/04 10:25:08;;;;;;;7.70;4.60;;;;;;;17.57;38.43;99520.35;107210;1256;110913;-66
2024/01/04 10:27:37;;;;;;;9.70;5.10;;;;;;;17.30;37.92;99515.30;107237;1257;108396;-67
2024/01/04 10:30:06;;;;;;;9.30;5.10;;;;;;;16.98;38.35;99506.20;107184;1256;108454;-66
2024/01/04 10:32:35;;;;;;;12.70;4.00;;;;;;;16.56;39.51;99505.87;107270;1257;97885;-66
2024/01/04 10:35:08;;;;;;;13.80;4.30;;;;;;;16.31;39.52;99511.91;107213;1256;97845;-67
2024/01/04 10:37:37;;;;;;;;;;;;;;;15.95;40.15;99504.66;107264;1257;110654;-68
2024/01/04 10:40:09;;;;;;;9.00;3.80;;;;;;;15.65;40.98;99504.15;107219;1257;108472;-66
2024/01/04 10:42:38;;;;;;;17.30;4.30;;;;;;;15.42;41.83;99502.99;107287;1257;106535;-66
2024/01/04 10:45:10;;;;;;;12.40;5.00;;;;;;;15.26;42.02;99503.10;107179;1256;97829;-66
2024/01/04 10:47:41;;;;;;;6.30;3.90;;;;;;;15.07;42.15;99501.42;107276;1256;97752;-67
2024/01/04 10:50:12;;;;;;;7.70;4.00;;;;;;;14.82;42.53;99493.39;107176;1257;111651;-67
2024/01/04 10:52:45;;;;;;;9.60;4.50;;;;;;;14.58;43.12;99490.54;107264;1257;108490;-66
2024/01/04 10:55:15;;;;;;;10.20;4.50;;;;;;;14.34;43.75;99479.09;107214;1258;107829;-67
2024/01/04 10:57:44;;;;;;;12.20;5.00;;;;;;;14.16;44.17;99478.08;107108;1260;97853;-66
2024/01/04 11:00:13;;;;;;;11.80;4.20;;;;;;;14.04;44.51;99478.15;107203;1257;96789;-66
2024/01/04 11:02:43;;;;;;;7.80;4.30;;;;;;;13.83;45.04;99476.04;107260;1257;112598;-64
2024/01/04 11:05:12;;;;;;;10.40;4.50;;;;;;;13.65;45.45;99472.05;107213;1256;108719;-65
2024/01/04 11:07:41;;;;;;;12.30;4.80;;;;;;;13.52;45.70;99474.20;107232;1256;107554;-66
2024/01/04 11:10:12;;;;;;;15.50;5.00;;;;;;;13.37;46.12;99472.52;107231;1262;97835;-66
2024/01/04 11:12:41;;;;;;;9.80;4.70;;;;;;;13.28;46.36;99469.48;107225;1257;97835;-65
2024/01/04 11:15:14;;;;;;;9.40;4.50;;;;;;;13.17;46.60;99467.27;107137;1260;111224;-65
2024/01/04 11:18:21;;;;;;;11.40;5.20;;;;;;;13.07;46.95;99469.13;107214;1257;106974;-66
2024/01/04 11:21:19;;;;;;;10.80;4.60;;;;;;;12.94;47.30;99468.52;106708;1262;108144;-64
2024/01/04 11:24:07;;;;;;;19.00;6.30;;;;;;;12.83;47.59;99467.61;106654;1262;97840;-65
2024/01/04 11:26:57;;;;;;;18.40;6.10;;;;;;;12.76;48.01;99471.15;107154;1260;97864;-65